sensor_id;sensor_type;location;lat;lon;timestamp;P1;durP1;ratioP1;P2;durP2;ratioP2
19173;SDS011;9719;49.322;8.536;2023-06-01T00:03:30;0.90;;;0.90;;
19173;SDS011;9719;49.322;8.536;2023-06-01T00:08:32;1.55;;;1.40;;
19173;SDS011;9719;49.322;8.536;2023-06-01T00:13:35;6.75;;;2.47;;
19173;SDS011;9719;49.322;8.536;2023-06-01T00:18:37;2.47;;;1.83;;
19173;SDS011;9719;49.322;8.536;2023-06-01T00:23:38;1.90;;;1.60;;
19173;SDS011;9719;49.322;8.536;2023-06-01T00:28:42;4.68;;;2.10;;
19173;SDS011;9719;49.322;8.536;2023-06-01T00:33:43;1.90;;;1.77;;
19173;SDS011;9719;49.322;8.536;2023-06-01T00:38:45;2.97;;;2.42;;
19173;SDS011;9719;49.322;8.536;2023-06-01T00:43:48;1.58;;;1.25;;
19173;SDS011;9719;49.322;8.536;2023-06-01T00:48:50;3.38;;;1.73;;
19173;SDS011;9719;49.322;8.536;2023-06-01T00:53:52;1.60;;;1.50;;
19173;SDS011;9719;49.322;8.536;2023-06-01T00:58:55;2.88;;;1.77;;
19173;SDS011;9719;49.322;8.536;2023-06-01T01:03:57;2.95;;;1.50;;
19173;SDS011;9719;49.322;8.536;2023-06-01T01:09:06;2.58;;;2.33;;
19173;SDS011;9719;49.322;8.536;2023-06-01T01:14:16;1.70;;;1.60;;
19173;SDS011;9719;49.322;8.536;2023-06-01T01:19:29;4.57;;;1.02;;
19173;SDS011;9719;49.322;8.536;2023-06-01T01:24:48;1.50;;;1.40;;
19173;SDS011;9719;49.322;8.536;2023-06-01T01:30:07;1.02;;;1.00;;
19173;SDS011;9719;49.322;8.536;2023-06-01T01:35:09;1.45;;;1.35;;
19173;SDS011;9719;49.322;8.536;2023-06-01T01:40:12;1.15;;;1.15;;
19173;SDS011;9719;49.322;8.536;2023-06-01T01:45:15;1.95;;;1.63;;
19173;SDS011;9719;49.322;8.536;2023-06-01T01:50:18;1.20;;;1.13;;
19173;SDS011;9719;49.322;8.536;2023-06-01T01:55:22;1.40;;;1.30;;
19173;SDS011;9719;49.322;8.536;2023-06-01T02:00:26;0.98;;;0.98;;
19173;SDS011;9719;49.322;8.536;2023-06-01T02:05:28;2.45;;;1.20;;
19173;SDS011;9719;49.322;8.536;2023-06-01T02:10:30;4.40;;;1.20;;
19173;SDS011;9719;49.322;8.536;2023-06-01T02:15:33;1.38;;;1.27;;
19173;SDS011;9719;49.322;8.536;2023-06-01T02:20:35;1.92;;;1.20;;
19173;SDS011;9719;49.322;8.536;2023-06-01T02:25:36;0.95;;;0.95;;
19173;SDS011;9719;49.322;8.536;2023-06-01T02:30:39;1.95;;;1.85;;
19173;SDS011;9719;49.322;8.536;2023-06-01T02:35:41;1.60;;;1.50;;
19173;SDS011;9719;49.322;8.536;2023-06-01T02:40:43;1.10;;;1.10;;
19173;SDS011;9719;49.322;8.536;2023-06-01T02:45:46;3.20;;;1.35;;
19173;SDS011;9719;49.322;8.536;2023-06-01T02:50:47;2.03;;;1.13;;
19173;SDS011;9719;49.322;8.536;2023-06-01T02:55:49;3.00;;;1.73;;
19173;SDS011;9719;49.322;8.536;2023-06-01T03:00:52;2.50;;;1.88;;
19173;SDS011;9719;49.322;8.536;2023-06-01T03:05:54;1.48;;;1.20;;
19173;SDS011;9719;49.322;8.536;2023-06-01T03:10:57;4.93;;;2.08;;
19173;SDS011;9719;49.322;8.536;2023-06-01T03:16:00;1.80;;;1.70;;
19173;SDS011;9719;49.322;8.536;2023-06-01T03:21:01;1.58;;;1.48;;
19173;SDS011;9719;49.322;8.536;2023-06-01T03:26:03;1.35;;;1.25;;
19173;SDS011;9719;49.322;8.536;2023-06-01T03:31:06;1.98;;;1.75;;
19173;SDS011;9719;49.322;8.536;2023-06-01T03:36:11;1.70;;;1.58;;
19173;SDS011;9719;49.322;8.536;2023-06-01T03:41:12;3.85;;;1.75;;
19173;SDS011;9719;49.322;8.536;2023-06-01T03:46:15;1.58;;;1.00;;
19173;SDS011;9719;49.322;8.536;2023-06-01T03:51:17;1.55;;;1.45;;
19173;SDS011;9719;49.322;8.536;2023-06-01T03:56:19;1.60;;;1.50;;
19173;SDS011;9719;49.322;8.536;2023-06-01T04:01:22;1.50;;;1.40;;
19173;SDS011;9719;49.322;8.536;2023-06-01T04:06:29;1.63;;;1.52;;
19173;SDS011;9719;49.322;8.536;2023-06-01T04:11:35;2.35;;;1.67;;
19173;SDS011;9719;49.322;8.536;2023-06-01T04:16:38;1.70;;;1.60;;
19173;SDS011;9719;49.322;8.536;2023-06-01T04:21:39;3.47;;;2.03;;
19173;SDS011;9719;49.322;8.536;2023-06-01T04:26:43;1.60;;;1.58;;
19173;SDS011;9719;49.322;8.536;2023-06-01T04:31:47;2.35;;;1.98;;
19173;SDS011;9719;49.322;8.536;2023-06-01T04:36:49;2.00;;;1.42;;
19173;SDS011;9719;49.322;8.536;2023-06-01T04:41:51;2.50;;;2.30;;
19173;SDS011;9719;49.322;8.536;2023-06-01T04:47:11;2.38;;;1.40;;
19173;SDS011;9719;49.322;8.536;2023-06-01T04:52:14;1.63;;;1.52;;
19173;SDS011;9719;49.322;8.536;2023-06-01T04:57:16;1.63;;;1.45;;
19173;SDS011;9719;49.322;8.536;2023-06-01T05:02:20;1.55;;;1.45;;
19173;SDS011;9719;49.322;8.536;2023-06-01T05:07:22;4.47;;;2.35;;
19173;SDS011;9719;49.322;8.536;2023-06-01T05:12:24;2.85;;;2.40;;
19173;SDS011;9719;49.322;8.536;2023-06-01T05:17:27;1.85;;;1.70;;
19173;SDS011;9719;49.322;8.536;2023-06-01T05:22:29;1.77;;;1.60;;
19173;SDS011;9719;49.322;8.536;2023-06-01T05:27:31;3.88;;;1.73;;
19173;SDS011;9719;49.322;8.536;2023-06-01T05:32:34;2.42;;;1.52;;
19173;SDS011;9719;49.322;8.536;2023-06-01T05:37:35;2.75;;;2.22;;
19173;SDS011;9719;49.322;8.536;2023-06-01T05:42:37;4.18;;;1.95;;
19173;SDS011;9719;49.322;8.536;2023-06-01T05:47:40;1.60;;;1.50;;
19173;SDS011;9719;49.322;8.536;2023-06-01T05:52:42;8.10;;;2.75;;
19173;SDS011;9719;49.322;8.536;2023-06-01T05:57:44;3.25;;;1.88;;
19173;SDS011;9719;49.322;8.536;2023-06-01T06:02:47;2.40;;;2.05;;
19173;SDS011;9719;49.322;8.536;2023-06-01T06:07:48;2.20;;;2.00;;
19173;SDS011;9719;49.322;8.536;2023-06-01T06:12:50;2.85;;;1.50;;
19173;SDS011;9719;49.322;8.536;2023-06-01T06:17:53;1.40;;;1.30;;
19173;SDS011;9719;49.322;8.536;2023-06-01T06:22:55;1.88;;;1.58;;
19173;SDS011;9719;49.322;8.536;2023-06-01T06:27:56;1.60;;;1.50;;
19173;SDS011;9719;49.322;8.536;2023-06-01T06:32:59;2.47;;;1.58;;
19173;SDS011;9719;49.322;8.536;2023-06-01T06:38:01;1.42;;;1.20;;
19173;SDS011;9719;49.322;8.536;2023-06-01T06:43:02;1.13;;;1.00;;
19173;SDS011;9719;49.322;8.536;2023-06-01T06:48:06;1.25;;;1.23;;
19173;SDS011;9719;49.322;8.536;2023-06-01T06:53:07;3.58;;;1.33;;
19173;SDS011;9719;49.322;8.536;2023-06-01T06:58:09;1.33;;;1.20;;
19173;SDS011;9719;49.322;8.536;2023-06-01T07:03:13;1.98;;;1.40;;
19173;SDS011;9719;49.322;8.536;2023-06-01T07:08:15;2.50;;;1.60;;
19173;SDS011;9719;49.322;8.536;2023-06-01T07:13:17;1.60;;;1.50;;
19173;SDS011;9719;49.322;8.536;2023-06-01T07:18:20;1.50;;;1.00;;
19173;SDS011;9719;49.322;8.536;2023-06-01T07:23:22;1.77;;;1.42;;
19173;SDS011;9719;49.322;8.536;2023-06-01T07:28:23;17.80;;;3.47;;
19173;SDS011;9719;49.322;8.536;2023-06-01T07:33:28;1.55;;;1.20;;
19173;SDS011;9719;49.322;8.536;2023-06-01T07:38:30;2.72;;;1.77;;
19173;SDS011;9719;49.322;8.536;2023-06-01T07:43:35;1.63;;;1.50;;
19173;SDS011;9719;49.322;8.536;2023-06-01T07:48:39;1.58;;;1.30;;
19173;SDS011;9719;49.322;8.536;2023-06-01T07:53:41;2.22;;;1.50;;
19173;SDS011;9719;49.322;8.536;2023-06-01T07:58:43;1.45;;;1.35;;
19173;SDS011;9719;49.322;8.536;2023-06-01T08:03:46;2.60;;;1.30;;
19173;SDS011;9719;49.322;8.536;2023-06-01T08:08:48;1.73;;;1.45;;
19173;SDS011;9719;49.322;8.536;2023-06-01T08:13:51;2.17;;;1.60;;
19173;SDS011;9719;49.322;8.536;2023-06-01T08:18:54;1.95;;;1.40;;
19173;SDS011;9719;49.322;8.536;2023-06-01T08:23:56;4.97;;;1.77;;
19173;SDS011;9719;49.322;8.536;2023-06-01T08:28:58;1.38;;;0.95;;
19173;SDS011;9719;49.322;8.536;2023-06-01T08:34:01;2.88;;;1.13;;
19173;SDS011;9719;49.322;8.536;2023-06-01T08:44:23;2.33;;;1.45;;
19173;SDS011;9719;49.322;8.536;2023-06-01T08:49:30;2.33;;;1.50;;
19173;SDS011;9719;49.322;8.536;2023-06-01T08:54:32;1.83;;;1.10;;
19173;SDS011;9719;49.322;8.536;2023-06-01T08:59:35;0.90;;;0.90;;
19173;SDS011;9719;49.322;8.536;2023-06-01T09:04:40;2.05;;;1.10;;
19173;SDS011;9719;49.322;8.536;2023-06-01T09:09:44;4.22;;;1.33;;
19173;SDS011;9719;49.322;8.536;2023-06-01T09:14:46;5.22;;;1.63;;
19173;SDS011;9719;49.322;8.536;2023-06-01T09:19:54;1.75;;;1.10;;
19173;SDS011;9719;49.322;8.536;2023-06-01T09:24:56;2.05;;;1.20;;
19173;SDS011;9719;49.322;8.536;2023-06-01T09:29:58;2.28;;;1.50;;
19173;SDS011;9719;49.322;8.536;2023-06-01T09:35:02;1.58;;;1.35;;
19173;SDS011;9719;49.322;8.536;2023-06-01T09:40:16;1.75;;;1.33;;
19173;SDS011;9719;49.322;8.536;2023-06-01T09:45:19;1.95;;;1.27;;
19173;SDS011;9719;49.322;8.536;2023-06-01T09:50:32;2.80;;;1.30;;
19173;SDS011;9719;49.322;8.536;2023-06-01T09:55:35;2.25;;;1.60;;
19173;SDS011;9719;49.322;8.536;2023-06-01T10:00:37;1.40;;;1.30;;
19173;SDS011;9719;49.322;8.536;2023-06-01T10:05:40;2.92;;;1.20;;
19173;SDS011;9719;49.322;8.536;2023-06-01T10:10:43;1.40;;;1.30;;
19173;SDS011;9719;49.322;8.536;2023-06-01T10:15:46;4.18;;;1.20;;
19173;SDS011;9719;49.322;8.536;2023-06-01T10:20:49;4.90;;;1.00;;
19173;SDS011;9719;49.322;8.536;2023-06-01T10:25:52;1.45;;;1.17;;
19173;SDS011;9719;49.322;8.536;2023-06-01T10:42:34;1.85;;;1.30;;
19173;SDS011;9719;49.322;8.536;2023-06-01T10:47:43;1.48;;;1.23;;
19173;SDS011;9719;49.322;8.536;2023-06-01T10:52:47;1.40;;;1.20;;
19173;SDS011;9719;49.322;8.536;2023-06-01T10:57:51;1.48;;;1.20;;
19173;SDS011;9719;49.322;8.536;2023-06-01T11:03:15;3.78;;;1.42;;
19173;SDS011;9719;49.322;8.536;2023-06-01T11:08:50;1.88;;;1.00;;
19173;SDS011;9719;49.322;8.536;2023-06-01T11:14:06;1.77;;;1.13;;
19173;SDS011;9719;49.322;8.536;2023-06-01T11:19:17;4.50;;;1.55;;
19173;SDS011;9719;49.322;8.536;2023-06-01T11:24:24;2.65;;;1.10;;
19173;SDS011;9719;49.322;8.536;2023-06-01T11:29:31;2.63;;;1.60;;
19173;SDS011;9719;49.322;8.536;2023-06-01T11:34:35;1.60;;;1.42;;
19173;SDS011;9719;49.322;8.536;2023-06-01T11:39:39;1.30;;;1.20;;
19173;SDS011;9719;49.322;8.536;2023-06-01T11:44:41;0.80;;;0.80;;
19173;SDS011;9719;49.322;8.536;2023-06-01T11:49:46;2.85;;;1.55;;
19173;SDS011;9719;49.322;8.536;2023-06-01T11:54:49;2.85;;;1.58;;
19173;SDS011;9719;49.322;8.536;2023-06-01T11:59:51;4.50;;;1.88;;
19173;SDS011;9719;49.322;8.536;2023-06-01T12:04:55;2.22;;;1.30;;
19173;SDS011;9719;49.322;8.536;2023-06-01T12:09:57;3.42;;;1.05;;
19173;SDS011;9719;49.322;8.536;2023-06-01T12:15:01;4.45;;;1.60;;
19173;SDS011;9719;49.322;8.536;2023-06-01T12:20:05;2.22;;;1.58;;
19173;SDS011;9719;49.322;8.536;2023-06-01T12:25:08;6.40;;;1.70;;
19173;SDS011;9719;49.322;8.536;2023-06-01T12:30:19;2.08;;;0.98;;
19173;SDS011;9719;49.322;8.536;2023-06-01T12:35:23;1.38;;;1.27;;
19173;SDS011;9719;49.322;8.536;2023-06-01T12:40:25;7.78;;;1.50;;
19173;SDS011;9719;49.322;8.536;2023-06-01T12:45:34;1.20;;;0.68;;
19173;SDS011;9719;49.322;8.536;2023-06-01T12:50:43;2.40;;;0.98;;
19173;SDS011;9719;49.322;8.536;2023-06-01T12:55:46;3.33;;;1.38;;
19173;SDS011;9719;49.322;8.536;2023-06-01T13:00:48;0.82;;;0.82;;
19173;SDS011;9719;49.322;8.536;2023-06-01T13:05:51;1.70;;;0.98;;
19173;SDS011;9719;49.322;8.536;2023-06-01T13:10:53;0.98;;;0.80;;
19173;SDS011;9719;49.322;8.536;2023-06-01T13:15:54;2.08;;;1.00;;
19173;SDS011;9719;49.322;8.536;2023-06-01T13:20:57;3.85;;;1.08;;
19173;SDS011;9719;49.322;8.536;2023-06-01T13:25:59;1.05;;;1.05;;
19173;SDS011;9719;49.322;8.536;2023-06-01T13:31:01;2.10;;;0.98;;
19173;SDS011;9719;49.322;8.536;2023-06-01T13:36:04;2.65;;;1.02;;
19173;SDS011;9719;49.322;8.536;2023-06-01T13:41:06;3.53;;;1.20;;
19173;SDS011;9719;49.322;8.536;2023-06-01T13:46:08;3.22;;;1.05;;
19173;SDS011;9719;49.322;8.536;2023-06-01T13:51:11;2.88;;;1.50;;
19173;SDS011;9719;49.322;8.536;2023-06-01T13:56:13;4.82;;;1.30;;
19173;SDS011;9719;49.322;8.536;2023-06-01T14:01:15;2.70;;;1.05;;
19173;SDS011;9719;49.322;8.536;2023-06-01T14:06:18;2.33;;;1.00;;
19173;SDS011;9719;49.322;8.536;2023-06-01T14:11:20;2.28;;;1.20;;
19173;SDS011;9719;49.322;8.536;2023-06-01T14:16:22;1.45;;;1.02;;
19173;SDS011;9719;49.322;8.536;2023-06-01T14:21:25;1.25;;;0.80;;
19173;SDS011;9719;49.322;8.536;2023-06-01T14:26:28;3.78;;;1.10;;
19173;SDS011;9719;49.322;8.536;2023-06-01T14:31:30;2.00;;;1.20;;
19173;SDS011;9719;49.322;8.536;2023-06-01T14:36:33;3.03;;;0.82;;
19173;SDS011;9719;49.322;8.536;2023-06-01T14:41:36;0.93;;;0.93;;
19173;SDS011;9719;49.322;8.536;2023-06-01T14:46:39;1.17;;;0.80;;
19173;SDS011;9719;49.322;8.536;2023-06-01T14:51:42;1.67;;;1.00;;
19173;SDS011;9719;49.322;8.536;2023-06-01T14:56:44;0.90;;;0.73;;
19173;SDS011;9719;49.322;8.536;2023-06-01T15:01:45;0.80;;;0.80;;
19173;SDS011;9719;49.322;8.536;2023-06-01T15:06:48;3.40;;;1.50;;
19173;SDS011;9719;49.322;8.536;2023-06-01T15:11:50;1.17;;;0.85;;
19173;SDS011;9719;49.322;8.536;2023-06-01T15:16:51;1.73;;;0.77;;
19173;SDS011;9719;49.322;8.536;2023-06-01T15:21:54;1.08;;;0.90;;
19173;SDS011;9719;49.322;8.536;2023-06-01T15:26:56;2.58;;;1.27;;
19173;SDS011;9719;49.322;8.536;2023-06-01T15:31:58;1.52;;;0.90;;
19173;SDS011;9719;49.322;8.536;2023-06-01T15:37:01;1.88;;;1.00;;
19173;SDS011;9719;49.322;8.536;2023-06-01T15:42:03;0.70;;;0.70;;
19173;SDS011;9719;49.322;8.536;2023-06-01T15:47:06;0.95;;;0.85;;
19173;SDS011;9719;49.322;8.536;2023-06-01T15:52:09;2.05;;;0.85;;
19173;SDS011;9719;49.322;8.536;2023-06-01T15:57:11;1.08;;;0.98;;
19173;SDS011;9719;49.322;8.536;2023-06-01T16:02:12;1.00;;;0.90;;
19173;SDS011;9719;49.322;8.536;2023-06-01T16:07:15;0.85;;;0.82;;
19173;SDS011;9719;49.322;8.536;2023-06-01T16:12:17;2.78;;;0.88;;
19173;SDS011;9719;49.322;8.536;2023-06-01T16:17:19;4.22;;;0.80;;
19173;SDS011;9719;49.322;8.536;2023-06-01T16:22:22;2.53;;;1.13;;
19173;SDS011;9719;49.322;8.536;2023-06-01T16:27:24;2.95;;;0.60;;
19173;SDS011;9719;49.322;8.536;2023-06-01T16:32:26;2.08;;;0.90;;
19173;SDS011;9719;49.322;8.536;2023-06-01T16:37:31;1.67;;;1.00;;
19173;SDS011;9719;49.322;8.536;2023-06-01T16:42:32;0.85;;;0.60;;
19173;SDS011;9719;49.322;8.536;2023-06-01T16:47:34;1.30;;;0.75;;
19173;SDS011;9719;49.322;8.536;2023-06-01T16:52:37;2.92;;;1.00;;
19173;SDS011;9719;49.322;8.536;2023-06-01T16:57:39;4.72;;;0.82;;
19173;SDS011;9719;49.322;8.536;2023-06-01T17:02:40;2.58;;;0.88;;
19173;SDS011;9719;49.322;8.536;2023-06-01T17:07:44;0.70;;;0.55;;
19173;SDS011;9719;49.322;8.536;2023-06-01T17:12:46;1.13;;;0.90;;
19173;SDS011;9719;49.322;8.536;2023-06-01T17:17:47;3.63;;;0.90;;
19173;SDS011;9719;49.322;8.536;2023-06-01T17:22:50;0.93;;;0.82;;
19173;SDS011;9719;49.322;8.536;2023-06-01T17:27:52;2.95;;;1.02;;
19173;SDS011;9719;49.322;8.536;2023-06-01T17:32:54;1.48;;;0.63;;
19173;SDS011;9719;49.322;8.536;2023-06-01T17:37:57;0.70;;;0.70;;
19173;SDS011;9719;49.322;8.536;2023-06-01T17:42:58;1.00;;;0.88;;
19173;SDS011;9719;49.322;8.536;2023-06-01T17:48:00;1.50;;;1.35;;
19173;SDS011;9719;49.322;8.536;2023-06-01T17:53:03;1.63;;;0.90;;
19173;SDS011;9719;49.322;8.536;2023-06-01T17:58:05;1.33;;;0.90;;
19173;SDS011;9719;49.322;8.536;2023-06-01T18:03:06;1.70;;;1.15;;
19173;SDS011;9719;49.322;8.536;2023-06-01T18:08:09;0.80;;;0.80;;
19173;SDS011;9719;49.322;8.536;2023-06-01T18:13:11;1.73;;;0.80;;
19173;SDS011;9719;49.322;8.536;2023-06-01T18:18:13;0.82;;;0.60;;
19173;SDS011;9719;49.322;8.536;2023-06-01T18:23:16;2.40;;;0.98;;
19173;SDS011;9719;49.322;8.536;2023-06-01T18:28:17;1.10;;;1.00;;
19173;SDS011;9719;49.322;8.536;2023-06-01T18:33:19;1.10;;;1.00;;
19173;SDS011;9719;49.322;8.536;2023-06-01T18:38:22;1.10;;;1.08;;
19173;SDS011;9719;49.322;8.536;2023-06-01T18:43:24;1.90;;;1.27;;
19173;SDS011;9719;49.322;8.536;2023-06-01T18:48:25;3.92;;;1.98;;
19173;SDS011;9719;49.322;8.536;2023-06-01T18:53:28;4.65;;;1.80;;
19173;SDS011;9719;49.322;8.536;2023-06-01T18:58:30;4.05;;;1.92;;
19173;SDS011;9719;49.322;8.536;2023-06-01T19:03:32;4.63;;;2.25;;
19173;SDS011;9719;49.322;8.536;2023-06-01T19:08:35;3.28;;;2.60;;
19173;SDS011;9719;49.322;8.536;2023-06-01T19:13:38;3.17;;;2.83;;
19173;SDS011;9719;49.322;8.536;2023-06-01T19:18:45;4.45;;;3.13;;
19173;SDS011;9719;49.322;8.536;2023-06-01T19:23:50;4.18;;;2.33;;
19173;SDS011;9719;49.322;8.536;2023-06-01T19:28:55;3.63;;;2.60;;
19173;SDS011;9719;49.322;8.536;2023-06-01T19:34:00;3.45;;;2.83;;
19173;SDS011;9719;49.322;8.536;2023-06-01T19:39:04;3.42;;;3.13;;
19173;SDS011;9719;49.322;8.536;2023-06-01T19:44:07;3.83;;;2.67;;
19173;SDS011;9719;49.322;8.536;2023-06-01T19:49:13;4.03;;;2.88;;
19173;SDS011;9719;49.322;8.536;2023-06-01T19:54:19;3.83;;;2.20;;
19173;SDS011;9719;49.322;8.536;2023-06-01T19:59:22;3.30;;;2.92;;
19173;SDS011;9719;49.322;8.536;2023-06-01T20:04:25;4.63;;;2.60;;
19173;SDS011;9719;49.322;8.536;2023-06-01T20:09:27;3.50;;;2.90;;
19173;SDS011;9719;49.322;8.536;2023-06-01T20:14:30;5.13;;;2.83;;
19173;SDS011;9719;49.322;8.536;2023-06-01T20:19:33;3.65;;;2.97;;
19173;SDS011;9719;49.322;8.536;2023-06-01T20:24:36;3.38;;;2.47;;
19173;SDS011;9719;49.322;8.536;2023-06-01T20:29:38;5.38;;;2.92;;
19173;SDS011;9719;49.322;8.536;2023-06-01T20:34:41;3.15;;;2.30;;
19173;SDS011;9719;49.322;8.536;2023-06-01T20:39:44;5.97;;;3.58;;
19173;SDS011;9719;49.322;8.536;2023-06-01T20:44:46;3.25;;;2.72;;
19173;SDS011;9719;49.322;8.536;2023-06-01T20:49:48;3.17;;;2.90;;
19173;SDS011;9719;49.322;8.536;2023-06-01T20:54:51;3.40;;;2.53;;
19173;SDS011;9719;49.322;8.536;2023-06-01T20:59:53;2.42;;;2.17;;
19173;SDS011;9719;49.322;8.536;2023-06-01T21:04:55;2.33;;;1.95;;
19173;SDS011;9719;49.322;8.536;2023-06-01T21:09:58;3.83;;;2.38;;
19173;SDS011;9719;49.322;8.536;2023-06-01T21:14:59;3.70;;;2.38;;
19173;SDS011;9719;49.322;8.536;2023-06-01T21:20:01;4.43;;;2.15;;
19173;SDS011;9719;49.322;8.536;2023-06-01T21:25:06;2.47;;;1.90;;
19173;SDS011;9719;49.322;8.536;2023-06-01T21:30:08;3.40;;;2.17;;
19173;SDS011;9719;49.322;8.536;2023-06-01T21:35:10;3.25;;;2.55;;
19173;SDS011;9719;49.322;8.536;2023-06-01T21:40:13;3.05;;;2.30;;
19173;SDS011;9719;49.322;8.536;2023-06-01T21:45:15;2.85;;;1.90;;
19173;SDS011;9719;49.322;8.536;2023-06-01T21:50:17;3.38;;;2.10;;
19173;SDS011;9719;49.322;8.536;2023-06-01T21:55:20;2.70;;;2.50;;
19173;SDS011;9719;49.322;8.536;2023-06-01T22:00:22;1.65;;;1.55;;
19173;SDS011;9719;49.322;8.536;2023-06-01T22:05:24;2.08;;;1.98;;
19173;SDS011;9719;49.322;8.536;2023-06-01T22:10:27;1.60;;;1.48;;
19173;SDS011;9719;49.322;8.536;2023-06-01T22:15:29;2.47;;;1.98;;
19173;SDS011;9719;49.322;8.536;2023-06-01T22:20:31;1.98;;;1.88;;
19173;SDS011;9719;49.322;8.536;2023-06-01T22:25:34;1.52;;;1.42;;
19173;SDS011;9719;49.322;8.536;2023-06-01T22:30:37;1.60;;;1.50;;
19173;SDS011;9719;49.322;8.536;2023-06-01T22:35:39;3.85;;;2.10;;
19173;SDS011;9719;49.322;8.536;2023-06-01T22:40:42;2.50;;;2.25;;
19173;SDS011;9719;49.322;8.536;2023-06-01T22:45:43;1.98;;;1.88;;
19173;SDS011;9719;49.322;8.536;2023-06-01T22:50:45;1.73;;;1.63;;
19173;SDS011;9719;49.322;8.536;2023-06-01T22:55:48;2.70;;;2.35;;
19173;SDS011;9719;49.322;8.536;2023-06-01T23:00:50;4.40;;;2.10;;
19173;SDS011;9719;49.322;8.536;2023-06-01T23:05:52;2.40;;;2.17;;
19173;SDS011;9719;49.322;8.536;2023-06-01T23:10:55;3.17;;;2.67;;
19173;SDS011;9719;49.322;8.536;2023-06-01T23:15:58;2.60;;;2.30;;
19173;SDS011;9719;49.322;8.536;2023-06-01T23:21:01;2.10;;;1.92;;
19173;SDS011;9719;49.322;8.536;2023-06-01T23:26:04;5.22;;;2.92;;
19173;SDS011;9719;49.322;8.536;2023-06-01T23:31:06;2.35;;;2.15;;
19173;SDS011;9719;49.322;8.536;2023-06-01T23:36:08;2.78;;;2.47;;
19173;SDS011;9719;49.322;8.536;2023-06-01T23:41:11;3.28;;;2.53;;
19173;SDS011;9719;49.322;8.536;2023-06-01T23:46:13;2.45;;;2.25;;
19173;SDS011;9719;49.322;8.536;2023-06-01T23:51:14;7.25;;;2.95;;
19173;SDS011;9719;49.322;8.536;2023-06-01T23:56:18;2.78;;;2.17;;
